createdAt,value
2018-07-26T15:14:25.895Z,989.95
2018-07-26T15:15:04.884Z,989.94
2018-07-26T15:16:58.919Z,989.98
2018-07-26T15:17:58.901Z,989.97
2018-07-26T15:19:52.045Z,989.96
2018-07-26T15:20:52.038Z,989.91
2018-07-26T15:22:44.935Z,989.91
2018-07-26T15:23:44.921Z,989.93
2018-07-26T15:25:37.804Z,989.90
2018-07-26T15:26:37.796Z,989.95
2018-07-26T15:27:37.794Z,989.99
2018-07-26T15:28:37.791Z,989.93
2018-07-26T15:29:37.789Z,989.91
2018-07-26T15:30:37.782Z,989.93
2018-07-26T15:31:37.778Z,989.94
2018-07-26T15:32:37.778Z,989.89
2018-07-26T15:33:37.772Z,989.89
2018-07-26T15:34:37.769Z,989.94
2018-07-26T15:35:37.764Z,989.90
2018-07-26T15:36:37.768Z,989.83
2018-07-26T15:37:37.789Z,989.83
2018-07-26T15:38:37.757Z,989.79
2018-07-26T15:39:37.752Z,989.83
2018-07-26T15:40:37.749Z,989.87
2018-07-26T15:41:37.752Z,989.83
2018-07-26T15:42:37.745Z,989.87
2018-07-26T15:43:37.747Z,989.86
2018-07-26T15:44:37.783Z,989.87
2018-07-26T15:45:37.735Z,989.85
2018-07-26T15:46:37.736Z,989.86
2018-07-26T15:47:37.724Z,989.90
2018-07-26T15:48:37.727Z,989.82
2018-07-26T15:49:37.725Z,989.82
2018-07-26T15:50:37.719Z,989.87
2018-07-26T15:51:37.718Z,989.86
2018-07-26T15:52:37.710Z,989.79
2018-07-26T15:53:37.708Z,989.92
2018-07-26T15:54:37.707Z,989.92
2018-07-26T15:55:37.762Z,989.90
2018-07-26T15:56:37.701Z,989.91
2018-07-26T15:57:37.699Z,989.92
2018-07-26T15:58:37.700Z,989.90
2018-07-26T15:59:37.689Z,989.87
2018-07-26T16:00:37.686Z,989.93
2018-07-26T16:01:37.683Z,989.90
2018-07-26T16:02:37.681Z,989.92
2018-07-26T16:03:37.742Z,989.91
2018-07-26T16:04:37.674Z,989.94
2018-07-26T16:05:37.671Z,989.92
2018-07-26T16:06:37.668Z,989.89
2018-07-26T16:07:37.662Z,989.92
2018-07-26T16:08:37.660Z,989.78
2018-07-26T16:09:37.659Z,989.87
2018-07-26T16:10:37.656Z,989.84
2018-07-26T16:11:37.654Z,989.83
2018-07-26T16:12:37.648Z,989.86
2018-07-26T16:13:37.648Z,989.82
2018-07-26T16:14:37.648Z,989.89
2018-07-26T16:15:37.639Z,989.83
2018-07-26T16:16:37.638Z,989.84
2018-07-26T16:17:37.722Z,989.84
2018-07-26T16:18:37.630Z,989.89
2018-07-26T16:19:37.623Z,989.86
2018-07-26T16:20:37.623Z,989.88
2018-07-26T16:21:37.618Z,989.86
2018-07-26T16:22:37.616Z,989.88
2018-07-26T16:23:37.610Z,989.86
2018-07-26T16:24:37.610Z,989.85
2018-07-26T16:25:37.611Z,989.85
2018-07-26T16:26:37.608Z,989.91
2018-07-26T16:27:37.603Z,989.85
2018-07-26T16:28:37.640Z,989.85
2018-07-26T16:29:37.596Z,989.87
2018-07-26T16:30:37.591Z,989.83
2018-07-26T16:31:37.587Z,989.86
2018-07-26T16:32:37.585Z,989.86
2018-07-26T16:33:37.582Z,989.85
2018-07-26T16:34:37.582Z,989.89
2018-07-26T16:35:37.576Z,989.95
2018-07-26T16:36:37.574Z,989.90
2018-07-26T16:37:37.570Z,989.87
2018-07-26T16:38:37.564Z,989.83
2018-07-26T16:39:37.564Z,989.84
2018-07-26T16:40:37.583Z,989.83
2018-07-26T16:41:37.557Z,989.81
2018-07-26T16:42:37.555Z,989.76
2018-07-26T16:43:37.548Z,989.77
2018-07-26T16:44:37.546Z,989.75
2018-07-26T16:45:37.544Z,989.76
2018-07-26T16:46:37.542Z,989.81
2018-07-26T16:47:37.530Z,989.81
2018-07-26T16:48:37.536Z,989.76
2018-07-26T16:49:37.530Z,989.77
2018-07-26T16:50:37.526Z,989.76
2018-07-26T16:51:37.524Z,989.78
2018-07-26T16:52:37.519Z,989.72
2018-07-26T16:53:37.521Z,989.75
2018-07-26T16:54:37.520Z,989.74
2018-07-26T16:55:37.510Z,989.75
2018-07-26T16:56:37.509Z,989.68
2018-07-26T16:57:37.531Z,989.68
2018-07-26T16:58:37.585Z,989.71
2018-07-26T16:59:37.496Z,989.76
2018-07-26T17:00:37.497Z,989.79
2018-07-26T17:01:37.491Z,989.75
2018-07-26T17:02:37.487Z,989.78
2018-07-26T17:03:37.484Z,989.74
2018-07-26T17:04:37.481Z,989.76
2018-07-26T17:05:37.477Z,989.82
2018-07-26T17:06:37.475Z,989.72
2018-07-26T17:07:37.476Z,989.73
2018-07-26T17:08:37.467Z,989.79
2018-07-26T17:09:37.466Z,989.72
2018-07-26T17:10:37.473Z,989.71
2018-07-26T17:11:37.458Z,989.74
2018-07-26T17:12:37.455Z,989.70
2018-07-26T17:13:37.503Z,989.75
2018-07-26T17:14:37.450Z,989.78
2018-07-26T17:15:37.445Z,989.74
2018-07-26T17:16:37.441Z,989.70
2018-07-26T17:17:37.443Z,989.77
2018-07-26T17:18:37.464Z,989.75
2018-07-26T17:19:37.440Z,989.71
2018-07-26T17:20:37.429Z,989.74
2018-07-26T17:21:37.430Z,989.72
2018-07-26T17:22:37.423Z,989.74
2018-07-26T17:23:37.445Z,989.78
2018-07-26T17:24:37.416Z,989.78
2018-07-26T17:25:37.416Z,989.76
2018-07-26T17:26:37.409Z,989.75
2018-07-26T17:27:37.404Z,989.75
2018-07-26T17:28:37.405Z,989.77
2018-07-26T17:29:37.402Z,989.80
2018-07-26T17:30:37.399Z,989.81
2018-07-26T17:31:37.391Z,989.80
2018-07-26T17:32:37.388Z,989.81
2018-07-26T17:33:37.387Z,989.81
2018-07-26T17:34:37.385Z,989.83
2018-07-26T17:35:37.423Z,989.79
2018-07-26T17:36:37.376Z,989.78
2018-07-26T17:37:37.376Z,989.83
2018-07-26T17:38:37.370Z,989.82
2018-07-26T17:39:37.365Z,989.78
2018-07-26T17:40:37.363Z,989.79
2018-07-26T17:41:37.359Z,989.79
2018-07-26T17:42:37.356Z,989.77
2018-07-26T17:43:37.367Z,989.79
2018-07-26T17:44:37.348Z,989.80
2018-07-26T17:45:37.366Z,989.85
2018-07-26T17:46:37.344Z,989.81
2018-07-26T17:47:37.340Z,989.81
2018-07-26T17:48:37.339Z,989.79
2018-07-26T17:49:37.335Z,989.80
2018-07-26T17:50:37.329Z,989.79
2018-07-26T17:51:37.326Z,989.79
2018-07-26T17:52:37.328Z,989.79
2018-07-26T17:53:37.321Z,989.85
2018-07-26T17:54:37.318Z,989.82
2018-07-26T17:55:37.313Z,989.85
2018-07-26T17:56:37.358Z,989.87
2018-07-26T17:57:37.306Z,989.85
2018-07-26T17:58:37.305Z,989.89
2018-07-26T17:59:37.299Z,989.87
2018-07-26T18:00:37.294Z,989.85
2018-07-26T18:01:37.292Z,989.87
2018-07-26T18:02:37.293Z,989.83
2018-07-26T18:03:37.286Z,989.85
2018-07-26T18:04:37.353Z,989.88
2018-07-26T18:05:37.283Z,989.85
2018-07-26T18:06:37.276Z,989.89
2018-07-26T18:07:37.271Z,989.88
2018-07-26T18:08:37.269Z,989.88
2018-07-26T18:09:37.267Z,989.86
2018-07-26T18:10:37.263Z,989.88
2018-07-26T18:11:37.258Z,989.87
2018-07-26T18:12:37.254Z,989.89
2018-07-26T18:13:37.250Z,989.92
2018-07-26T18:14:37.248Z,989.92
2018-07-26T18:15:37.249Z,989.92
2018-07-26T18:16:37.251Z,989.94
2018-07-26T18:17:37.237Z,989.94
2018-07-26T18:18:37.238Z,989.91
2018-07-26T18:19:37.234Z,989.92
2018-07-26T18:20:37.228Z,989.95
2018-07-26T18:21:37.227Z,990.01
2018-07-26T18:22:37.221Z,989.97
2018-07-26T18:23:37.219Z,989.97
2018-07-26T18:24:37.221Z,989.98
2018-07-26T18:25:37.248Z,989.98
2018-07-26T18:26:37.209Z,989.97
2018-07-26T18:27:37.206Z,989.99
2018-07-26T18:28:37.203Z,990.04
2018-07-26T18:29:37.201Z,990.04
2018-07-26T18:30:37.196Z,990.04
2018-07-26T18:31:37.276Z,990.01
2018-07-26T18:32:37.188Z,990.03
2018-07-26T18:33:37.185Z,990.03
2018-07-26T18:34:37.188Z,990.03
2018-07-26T18:35:37.227Z,990.02
2018-07-26T18:36:37.173Z,990.03
2018-07-26T18:37:37.170Z,990.05
2018-07-26T18:38:37.167Z,989.99
2018-07-26T18:39:37.162Z,990.01
2018-07-26T18:40:37.162Z,990.03
2018-07-26T18:41:37.166Z,990.08
2018-07-26T18:42:37.156Z,990.07
2018-07-26T18:43:37.160Z,990.09
2018-07-26T18:44:37.152Z,990.07
2018-07-26T18:45:37.143Z,990.06
2018-07-26T18:46:37.146Z,990.09
2018-07-26T18:47:37.135Z,990.14
2018-07-26T18:48:37.133Z,990.11
2018-07-26T18:49:37.167Z,990.15
2018-07-26T18:50:37.127Z,990.16
2018-07-26T18:51:37.123Z,990.13
2018-07-26T18:52:37.165Z,990.16
2018-07-26T18:53:37.115Z,990.17
2018-07-26T18:54:37.116Z,990.19
2018-07-26T18:55:37.115Z,990.19
2018-07-26T18:56:37.105Z,990.22
2018-07-26T18:57:37.102Z,990.20
2018-07-26T18:58:37.102Z,990.19
2018-07-26T18:59:37.095Z,990.20
2018-07-26T19:00:37.091Z,990.19
2018-07-26T19:01:37.088Z,990.21
2018-07-26T19:02:37.085Z,990.21
2018-07-26T19:03:37.080Z,990.27
2018-07-26T19:04:37.080Z,990.22
2018-07-26T19:05:37.072Z,990.24
2018-07-26T19:06:37.071Z,990.26
2018-07-26T19:07:37.070Z,990.22
2018-07-26T19:08:37.099Z,990.26
2018-07-26T19:09:37.064Z,990.28
2018-07-26T19:10:37.059Z,990.30
2018-07-26T19:11:37.053Z,990.28
2018-07-26T19:12:37.050Z,990.30
2018-07-26T19:13:37.047Z,990.32
2018-07-26T19:14:37.043Z,990.31
2018-07-26T19:15:37.040Z,990.28
2018-07-26T19:16:37.037Z,990.34
2018-07-26T19:17:37.038Z,990.31
2018-07-26T19:18:37.029Z,990.31
2018-07-26T19:19:37.022Z,990.34
2018-07-26T19:20:37.021Z,990.34
2018-07-26T19:21:37.026Z,990.36
2018-07-26T19:22:37.025Z,990.38
2018-07-26T19:23:37.015Z,990.37
2018-07-26T19:24:37.014Z,990.39
2018-07-26T19:25:37.005Z,990.39
2018-07-26T19:26:37.003Z,990.40
2018-07-26T19:27:36.997Z,990.40
2018-07-26T19:28:36.993Z,990.42
2018-07-26T19:29:36.988Z,990.42
2018-07-26T19:30:36.987Z,990.42
2018-07-26T19:31:36.982Z,990.47
2018-07-26T19:32:36.979Z,990.48
2018-07-26T19:33:36.978Z,990.47
2018-07-26T19:34:36.975Z,990.45
2018-07-26T19:35:36.977Z,990.46
2018-07-26T19:36:36.965Z,990.51
2018-07-26T19:37:36.963Z,990.50
2018-07-26T19:38:36.968Z,990.51
2018-07-26T19:39:36.955Z,990.53
2018-07-26T19:40:36.957Z,990.58
2018-07-26T19:41:36.949Z,990.54
2018-07-26T19:42:36.943Z,990.58
2018-07-26T19:43:36.943Z,990.52
2018-07-26T19:44:36.940Z,990.52
2018-07-26T19:45:36.935Z,990.57
2018-07-26T19:46:36.932Z,990.56
2018-07-26T19:47:36.928Z,990.55
2018-07-26T19:48:36.923Z,990.59
2018-07-26T19:49:36.918Z,990.56
2018-07-26T19:50:36.920Z,990.61
2018-07-26T19:51:36.911Z,990.57
2018-07-26T19:52:36.910Z,990.64
2018-07-26T19:53:36.911Z,990.58
2018-07-26T19:54:36.903Z,990.64
2018-07-26T19:55:36.897Z,990.63
2018-07-26T19:56:36.893Z,990.64
2018-07-26T19:57:36.890Z,990.64
2018-07-26T19:58:36.885Z,990.63
2018-07-26T19:59:36.883Z,990.66
2018-07-26T20:00:36.881Z,990.65
2018-07-26T20:01:36.876Z,990.68
2018-07-26T20:02:36.874Z,990.65
2018-07-26T20:03:36.869Z,990.71
2018-07-26T20:04:36.863Z,990.69
2018-07-26T20:05:36.861Z,990.67
2018-07-26T20:06:36.861Z,990.66
2018-07-26T20:07:36.858Z,990.67
2018-07-26T20:08:36.854Z,990.65
2018-07-26T20:09:36.856Z,990.69
2018-07-26T20:10:36.846Z,990.65
2018-07-26T20:11:37.663Z,990.66
2018-07-26T20:12:37.504Z,990.63
2018-07-26T20:13:37.413Z,990.67
2018-07-26T20:14:36.829Z,990.69
2018-07-26T20:15:37.962Z,990.63
2018-07-26T20:16:36.831Z,990.64
2018-07-26T20:17:36.820Z,990.68
2018-07-26T20:18:36.817Z,990.70
2018-07-26T20:19:36.827Z,990.67
2018-07-26T20:20:36.809Z,990.72
2018-07-26T20:21:36.808Z,990.70
2018-07-26T20:22:36.825Z,990.72
2018-07-26T20:23:36.799Z,990.70
2018-07-26T20:24:36.797Z,990.71
2018-07-26T20:25:36.794Z,990.73
2018-07-26T20:26:36.784Z,990.74
2018-07-26T20:27:36.780Z,990.75
2018-07-26T20:28:36.778Z,990.77
2018-07-26T20:29:36.770Z,990.82
2018-07-26T20:30:36.769Z,990.82
2018-07-26T20:31:36.765Z,990.82
2018-07-26T20:32:36.761Z,990.83
2018-07-26T20:33:36.756Z,990.86
2018-07-26T20:34:37.953Z,990.82
2018-07-26T20:35:36.750Z,990.83
2018-07-26T20:36:37.106Z,990.85
2018-07-26T20:37:36.742Z,990.84
2018-07-26T20:38:36.736Z,990.85
2018-07-26T20:39:36.728Z,990.89
2018-07-26T20:40:36.727Z,990.93
2018-07-26T20:41:36.723Z,990.93
2018-07-26T20:42:36.720Z,990.96
2018-07-26T20:43:36.714Z,990.92
2018-07-26T20:44:36.706Z,990.91
2018-07-26T20:45:36.715Z,990.95
2018-07-26T20:46:36.699Z,990.94
2018-07-26T20:47:36.753Z,990.99
2018-07-26T20:48:36.698Z,990.94
2018-07-26T20:49:36.821Z,990.99
2018-07-26T20:50:36.719Z,990.98
2018-07-26T20:51:36.676Z,990.95
2018-07-26T20:52:36.849Z,990.96
2018-07-26T20:53:36.666Z,991.03
2018-07-26T20:54:36.666Z,991.08
2018-07-26T20:55:36.657Z,991.04
2018-07-26T20:56:36.693Z,991.07
2018-07-26T20:57:36.653Z,991.03
2018-07-26T20:58:36.643Z,991.00
2018-07-26T20:59:36.660Z,991.01
2018-07-26T21:00:36.637Z,991.01
2018-07-26T21:01:36.629Z,990.99
2018-07-26T21:02:36.621Z,990.98
2018-07-26T21:03:36.616Z,990.98
2018-07-26T21:04:36.614Z,990.98
2018-07-26T21:05:36.735Z,991.00
2018-07-26T21:06:36.605Z,990.97
2018-07-26T21:07:36.599Z,990.98
2018-07-26T21:08:37.942Z,991.02
2018-07-26T21:09:36.588Z,991.02
2018-07-26T21:10:36.586Z,991.03
2018-07-26T21:11:36.583Z,991.07
2018-07-26T21:12:37.256Z,991.07
2018-07-26T21:13:36.568Z,991.06
2018-07-26T21:14:36.579Z,991.06
2018-07-26T21:15:36.561Z,991.11
2018-07-26T21:16:36.559Z,991.11
2018-07-26T21:17:36.548Z,991.06
2018-07-26T21:18:36.546Z,991.11
2018-07-26T21:19:36.540Z,991.10
2018-07-26T21:20:36.534Z,991.13
2018-07-26T21:21:36.524Z,991.15
2018-07-26T21:22:36.524Z,991.21
2018-07-26T21:23:37.107Z,991.17
2018-07-26T21:24:36.515Z,991.17
2018-07-26T21:25:36.514Z,991.20
2018-07-26T21:26:36.504Z,991.23
2018-07-26T21:27:36.496Z,991.19
2018-07-26T21:28:36.491Z,991.20
2018-07-26T21:29:36.486Z,991.22
2018-07-26T21:30:36.487Z,991.21
2018-07-26T21:31:36.494Z,991.25
2018-07-26T21:32:36.473Z,991.24
2018-07-26T21:33:36.483Z,991.23
2018-07-26T21:34:36.569Z,991.21
2018-07-26T21:35:36.457Z,991.19
2018-07-26T21:36:36.455Z,991.16
2018-07-26T21:37:36.446Z,991.18
2018-07-26T21:38:36.474Z,991.12
2018-07-26T21:39:36.785Z,991.16
2018-07-26T21:40:36.439Z,991.11
2018-07-26T21:41:36.423Z,991.14
2018-07-26T21:42:36.420Z,991.14
2018-07-26T21:43:36.418Z,991.13
2018-07-26T21:44:36.413Z,991.13
2018-07-26T21:45:36.405Z,991.13
2018-07-26T21:46:36.399Z,991.12
2018-07-26T21:47:36.394Z,991.13
2018-07-26T21:48:36.386Z,991.18
2018-07-26T21:49:36.382Z,991.20
2018-07-26T21:50:36.382Z,991.17
2018-07-26T21:51:36.371Z,991.18
2018-07-26T21:52:36.366Z,991.17
2018-07-26T21:53:36.361Z,991.16
2018-07-26T21:54:36.356Z,991.16
2018-07-26T21:55:36.352Z,991.11
2018-07-26T21:56:36.346Z,991.12
2018-07-26T21:57:36.340Z,991.09
2018-07-26T21:58:36.337Z,991.10
2018-07-26T21:59:36.327Z,991.13
2018-07-26T22:00:36.327Z,991.15
2018-07-26T22:01:36.317Z,991.15
2018-07-26T22:02:36.388Z,991.15
2018-07-26T22:03:36.309Z,991.13
2018-07-26T22:04:36.300Z,991.09
2018-07-26T22:05:36.307Z,991.13
2018-07-26T22:06:36.294Z,991.10
2018-07-26T22:07:36.295Z,991.13
2018-07-26T22:08:36.298Z,991.12
2018-07-26T22:09:36.278Z,991.11
2018-07-26T22:10:36.274Z,991.10
2018-07-26T22:11:36.268Z,991.15
2018-07-26T22:12:36.265Z,991.12
2018-07-26T22:13:36.260Z,991.12
2018-07-26T22:14:36.288Z,991.14
2018-07-26T22:15:36.251Z,991.13
2018-07-26T22:16:36.245Z,991.14
2018-07-26T22:17:36.258Z,991.18
2018-07-26T22:18:36.237Z,991.15
2018-07-26T22:19:36.234Z,991.20
2018-07-26T22:20:36.236Z,991.18
2018-07-26T22:21:36.224Z,991.18
2018-07-26T22:22:36.223Z,991.16
2018-07-26T22:23:36.216Z,991.17
2018-07-26T22:24:36.211Z,991.16
2018-07-26T22:25:36.206Z,991.15
2018-07-26T22:26:36.201Z,991.18
2018-07-26T22:27:36.197Z,991.18
2018-07-26T22:28:36.192Z,991.16
2018-07-26T22:29:36.191Z,991.13
2018-07-26T22:30:36.186Z,991.08
2018-07-26T22:31:36.188Z,991.13
2018-07-26T22:32:36.173Z,991.13
2018-07-26T22:33:36.174Z,991.09
2018-07-26T22:34:36.168Z,991.10
2018-07-26T22:35:36.161Z,991.09
2018-07-26T22:36:36.158Z,991.09
2018-07-26T22:37:36.154Z,991.03
2018-07-26T22:38:36.151Z,991.10
2018-07-26T22:39:36.146Z,991.06
2018-07-26T22:40:36.141Z,991.08
2018-07-26T22:41:36.137Z,991.16
2018-07-26T22:42:36.134Z,991.11
2018-07-26T22:43:36.136Z,991.08
2018-07-26T22:44:36.128Z,991.10
2018-07-26T22:45:36.124Z,991.13
2018-07-26T22:46:36.120Z,991.10
2018-07-26T22:47:36.118Z,991.11
2018-07-26T22:48:36.105Z,991.09
2018-07-26T22:49:36.106Z,991.14
2018-07-26T22:50:36.099Z,991.09
2018-07-26T22:51:36.097Z,991.10
2018-07-26T22:52:36.094Z,991.12
2018-07-26T22:53:36.100Z,991.12
2018-07-26T22:54:36.095Z,991.08
2018-07-26T22:55:36.082Z,991.13
2018-07-26T22:56:36.081Z,991.10
2018-07-26T22:57:36.074Z,991.09
2018-07-26T22:58:36.070Z,991.14
2018-07-26T22:59:36.068Z,991.15
2018-07-26T23:00:36.063Z,991.16
2018-07-26T23:01:36.060Z,991.12
2018-07-26T23:02:36.056Z,991.11
2018-07-26T23:03:36.051Z,991.17
2018-07-26T23:04:36.048Z,991.16
2018-07-26T23:05:36.044Z,991.19
2018-07-26T23:06:36.052Z,991.13
2018-07-26T23:07:36.040Z,991.12
2018-07-26T23:08:36.035Z,991.17
2018-07-26T23:09:36.042Z,991.13
2018-07-26T23:10:36.026Z,991.17
2018-07-26T23:11:36.022Z,991.18
2018-07-26T23:12:36.017Z,991.13
2018-07-26T23:13:36.011Z,991.16
2018-07-26T23:14:36.013Z,991.15
2018-07-26T23:15:36.016Z,991.14
2018-07-26T23:16:36.004Z,991.15
2018-07-26T23:17:35.998Z,991.15
2018-07-26T23:18:35.996Z,991.15
2018-07-26T23:19:35.989Z,991.14
2018-07-26T23:20:35.984Z,991.11
2018-07-26T23:21:35.988Z,991.12
2018-07-26T23:22:35.980Z,991.08
2018-07-26T23:23:35.978Z,991.08
2018-07-26T23:24:35.974Z,991.08
2018-07-26T23:25:35.970Z,991.04
2018-07-26T23:26:35.975Z,991.09
2018-07-26T23:27:35.969Z,991.06
2018-07-26T23:28:35.958Z,991.08
2018-07-26T23:29:35.955Z,991.09
2018-07-26T23:30:35.952Z,991.11
2018-07-26T23:31:35.945Z,991.10
2018-07-26T23:32:35.984Z,991.10
2018-07-26T23:33:35.939Z,991.12
2018-07-26T23:34:35.934Z,991.14
2018-07-26T23:35:35.929Z,991.09
2018-07-26T23:36:35.928Z,991.08
2018-07-26T23:37:35.924Z,991.12
2018-07-26T23:38:35.921Z,991.09
2018-07-26T23:39:35.925Z,991.10
2018-07-26T23:40:35.917Z,991.11
2018-07-26T23:41:35.912Z,991.09
2018-07-26T23:42:35.906Z,991.08
2018-07-26T23:43:35.902Z,991.10
2018-07-26T23:44:35.900Z,991.13
2018-07-26T23:45:35.898Z,991.08
2018-07-26T23:46:35.893Z,991.12
2018-07-26T23:47:35.888Z,991.17
2018-07-26T23:48:35.883Z,991.16
2018-07-26T23:49:35.880Z,991.10
2018-07-26T23:50:35.879Z,991.14
2018-07-26T23:51:35.879Z,991.10
2018-07-26T23:52:35.868Z,991.12
2018-07-26T23:53:35.867Z,991.08
2018-07-26T23:54:35.865Z,991.11
2018-07-26T23:55:35.860Z,991.08
2018-07-26T23:56:35.856Z,991.10
2018-07-26T23:57:35.857Z,991.06
2018-07-26T23:58:35.850Z,991.07
2018-07-26T23:59:35.844Z,991.05
